sensor_id;sensor_type;location;lat;lon;timestamp;P1;durP1;ratioP1;P2;durP2;ratioP2
21392;SDS011;10857;52.228;21.026;2023-02-28T00:00:12;20.80;;;11.17;;
21392;SDS011;10857;52.228;21.026;2023-02-28T00:02:40;22.13;;;11.43;;
21392;SDS011;10857;52.228;21.026;2023-02-28T00:05:10;20.97;;;10.93;;
21392;SDS011;10857;52.228;21.026;2023-02-28T00:07:37;23.97;;;11.50;;
21392;SDS011;10857;52.228;21.026;2023-02-28T00:10:06;22.00;;;11.07;;
21392;SDS011;10857;52.228;21.026;2023-02-28T00:12:34;22.53;;;11.77;;
21392;SDS011;10857;52.228;21.026;2023-02-28T00:15:02;20.17;;;11.00;;
21392;SDS011;10857;52.228;21.026;2023-02-28T00:17:32;22.53;;;11.83;;
21392;SDS011;10857;52.228;21.026;2023-02-28T00:19:59;22.40;;;11.17;;
21392;SDS011;10857;52.228;21.026;2023-02-28T00:22:38;23.00;;;11.60;;
21392;SDS011;10857;52.228;21.026;2023-02-28T00:25:07;22.10;;;10.87;;
21392;SDS011;10857;52.228;21.026;2023-02-28T00:27:34;21.63;;;11.37;;
21392;SDS011;10857;52.228;21.026;2023-02-28T00:30:03;22.50;;;11.30;;
21392;SDS011;10857;52.228;21.026;2023-02-28T00:32:31;21.53;;;10.97;;
21392;SDS011;10857;52.228;21.026;2023-02-28T00:35:00;22.53;;;10.57;;
21392;SDS011;10857;52.228;21.026;2023-02-28T00:37:27;19.23;;;9.70;;
21392;SDS011;10857;52.228;21.026;2023-02-28T00:39:55;19.67;;;11.00;;
21392;SDS011;10857;52.228;21.026;2023-02-28T00:42:22;22.33;;;10.70;;
21392;SDS011;10857;52.228;21.026;2023-02-28T00:44:50;22.23;;;11.10;;
21392;SDS011;10857;52.228;21.026;2023-02-28T00:47:17;22.30;;;11.57;;
21392;SDS011;10857;52.228;21.026;2023-02-28T00:49:45;22.93;;;11.63;;
21392;SDS011;10857;52.228;21.026;2023-02-28T00:52:12;22.60;;;11.47;;
21392;SDS011;10857;52.228;21.026;2023-02-28T00:54:39;23.27;;;10.93;;
21392;SDS011;10857;52.228;21.026;2023-02-28T00:57:07;21.73;;;10.53;;
21392;SDS011;10857;52.228;21.026;2023-02-28T00:59:34;23.47;;;10.80;;
21392;SDS011;10857;52.228;21.026;2023-02-28T01:02:02;21.47;;;10.70;;
21392;SDS011;10857;52.228;21.026;2023-02-28T01:04:29;20.17;;;10.00;;
21392;SDS011;10857;52.228;21.026;2023-02-28T01:07:00;22.60;;;11.27;;
21392;SDS011;10857;52.228;21.026;2023-02-28T01:09:27;20.30;;;11.00;;
21392;SDS011;10857;52.228;21.026;2023-02-28T01:11:55;19.93;;;10.37;;
21392;SDS011;10857;52.228;21.026;2023-02-28T01:14:23;23.90;;;10.73;;
21392;SDS011;10857;52.228;21.026;2023-02-28T01:16:50;28.97;;;10.87;;
21392;SDS011;10857;52.228;21.026;2023-02-28T01:19:18;26.27;;;11.33;;
21392;SDS011;10857;52.228;21.026;2023-02-28T01:21:45;24.47;;;10.80;;
21392;SDS011;10857;52.228;21.026;2023-02-28T01:24:13;27.10;;;11.03;;
21392;SDS011;10857;52.228;21.026;2023-02-28T01:26:40;25.87;;;11.20;;
21392;SDS011;10857;52.228;21.026;2023-02-28T01:29:08;28.53;;;11.40;;
21392;SDS011;10857;52.228;21.026;2023-02-28T01:31:35;25.17;;;11.77;;
21392;SDS011;10857;52.228;21.026;2023-02-28T01:34:02;21.27;;;11.10;;
21392;SDS011;10857;52.228;21.026;2023-02-28T01:36:30;22.17;;;11.20;;
21392;SDS011;10857;52.228;21.026;2023-02-28T01:38:57;23.47;;;11.70;;
21392;SDS011;10857;52.228;21.026;2023-02-28T01:41:27;24.33;;;11.60;;
21392;SDS011;10857;52.228;21.026;2023-02-28T01:43:56;26.27;;;11.30;;
21392;SDS011;10857;52.228;21.026;2023-02-28T01:46:24;19.63;;;10.87;;
21392;SDS011;10857;52.228;21.026;2023-02-28T01:49:03;25.60;;;11.17;;
21392;SDS011;10857;52.228;21.026;2023-02-28T01:51:37;29.07;;;11.30;;
21392;SDS011;10857;52.228;21.026;2023-02-28T01:54:10;26.27;;;11.27;;
21392;SDS011;10857;52.228;21.026;2023-02-28T01:56:44;23.80;;;11.07;;
21392;SDS011;10857;52.228;21.026;2023-02-28T01:59:14;25.47;;;12.17;;
21392;SDS011;10857;52.228;21.026;2023-02-28T02:01:45;24.50;;;12.40;;
21392;SDS011;10857;52.228;21.026;2023-02-28T02:04:12;23.43;;;11.80;;
21392;SDS011;10857;52.228;21.026;2023-02-28T02:06:42;20.53;;;11.07;;
21392;SDS011;10857;52.228;21.026;2023-02-28T02:09:10;25.20;;;11.80;;
21392;SDS011;10857;52.228;21.026;2023-02-28T02:11:39;26.20;;;11.73;;
21392;SDS011;10857;52.228;21.026;2023-02-28T02:22:19;23.43;;;11.50;;
21392;SDS011;10857;52.228;21.026;2023-02-28T02:29:47;24.77;;;12.10;;
21392;SDS011;10857;52.228;21.026;2023-02-28T02:32:53;23.73;;;11.93;;
21392;SDS011;10857;52.228;21.026;2023-02-28T02:38:11;23.90;;;11.90;;
21392;SDS011;10857;52.228;21.026;2023-02-28T02:40:46;27.60;;;12.40;;
21392;SDS011;10857;52.228;21.026;2023-02-28T02:43:19;21.97;;;12.20;;
21392;SDS011;10857;52.228;21.026;2023-02-28T02:45:49;24.73;;;12.10;;
21392;SDS011;10857;52.228;21.026;2023-02-28T02:48:21;23.50;;;12.07;;
21392;SDS011;10857;52.228;21.026;2023-02-28T02:50:54;22.27;;;11.50;;
21392;SDS011;10857;52.228;21.026;2023-02-28T02:53:24;22.43;;;11.50;;
21392;SDS011;10857;52.228;21.026;2023-02-28T02:55:52;21.60;;;11.63;;
21392;SDS011;10857;52.228;21.026;2023-02-28T02:58:24;24.07;;;12.43;;
21392;SDS011;10857;52.228;21.026;2023-02-28T03:00:54;23.33;;;12.10;;
21392;SDS011;10857;52.228;21.026;2023-02-28T03:03:22;25.63;;;12.13;;
21392;SDS011;10857;52.228;21.026;2023-02-28T03:05:59;20.47;;;12.03;;
21392;SDS011;10857;52.228;21.026;2023-02-28T03:08:27;23.20;;;12.43;;
21392;SDS011;10857;52.228;21.026;2023-02-28T03:10:58;25.73;;;11.77;;
21392;SDS011;10857;52.228;21.026;2023-02-28T03:18:40;22.73;;;12.13;;
21392;SDS011;10857;52.228;21.026;2023-02-28T03:21:14;24.27;;;12.20;;
21392;SDS011;10857;52.228;21.026;2023-02-28T03:23:46;21.83;;;12.03;;
21392;SDS011;10857;52.228;21.026;2023-02-28T03:26:21;26.77;;;12.53;;
21392;SDS011;10857;52.228;21.026;2023-02-28T03:28:56;30.30;;;13.33;;
21392;SDS011;10857;52.228;21.026;2023-02-28T03:34:23;30.93;;;12.73;;
21392;SDS011;10857;52.228;21.026;2023-02-28T03:36:52;33.40;;;14.17;;
21392;SDS011;10857;52.228;21.026;2023-02-28T03:39:24;30.60;;;15.20;;
21392;SDS011;10857;52.228;21.026;2023-02-28T03:42:10;31.30;;;14.57;;
21392;SDS011;10857;52.228;21.026;2023-02-28T03:44:40;33.77;;;14.97;;
21392;SDS011;10857;52.228;21.026;2023-02-28T03:47:10;34.97;;;15.17;;
21392;SDS011;10857;52.228;21.026;2023-02-28T03:49:44;32.40;;;15.03;;
21392;SDS011;10857;52.228;21.026;2023-02-28T03:52:14;37.20;;;16.30;;
21392;SDS011;10857;52.228;21.026;2023-02-28T03:54:42;34.50;;;15.07;;
21392;SDS011;10857;52.228;21.026;2023-02-28T03:59:46;29.83;;;14.70;;
21392;SDS011;10857;52.228;21.026;2023-02-28T04:02:14;29.00;;;15.10;;
21392;SDS011;10857;52.228;21.026;2023-02-28T04:04:42;31.60;;;15.30;;
21392;SDS011;10857;52.228;21.026;2023-02-28T04:07:15;28.47;;;15.10;;
21392;SDS011;10857;52.228;21.026;2023-02-28T04:09:42;31.63;;;14.50;;
21392;SDS011;10857;52.228;21.026;2023-02-28T04:12:10;30.57;;;14.63;;
21392;SDS011;10857;52.228;21.026;2023-02-28T04:14:37;30.67;;;15.27;;
21392;SDS011;10857;52.228;21.026;2023-02-28T04:17:05;27.97;;;14.53;;
21392;SDS011;10857;52.228;21.026;2023-02-28T04:19:32;33.90;;;15.53;;
21392;SDS011;10857;52.228;21.026;2023-02-28T04:21:59;38.57;;;16.83;;
21392;SDS011;10857;52.228;21.026;2023-02-28T04:24:27;35.70;;;15.00;;
21392;SDS011;10857;52.228;21.026;2023-02-28T04:26:56;28.33;;;14.83;;
21392;SDS011;10857;52.228;21.026;2023-02-28T04:29:24;30.63;;;15.00;;
21392;SDS011;10857;52.228;21.026;2023-02-28T04:31:52;30.80;;;15.40;;
21392;SDS011;10857;52.228;21.026;2023-02-28T04:34:20;30.20;;;14.37;;
21392;SDS011;10857;52.228;21.026;2023-02-28T04:36:48;28.73;;;13.97;;
21392;SDS011;10857;52.228;21.026;2023-02-28T04:39:36;28.87;;;14.83;;
21392;SDS011;10857;52.228;21.026;2023-02-28T04:42:04;32.70;;;14.93;;
21392;SDS011;10857;52.228;21.026;2023-02-28T04:44:32;31.50;;;15.20;;
21392;SDS011;10857;52.228;21.026;2023-02-28T04:46:59;32.70;;;15.53;;
21392;SDS011;10857;52.228;21.026;2023-02-28T04:49:26;32.90;;;16.60;;
21392;SDS011;10857;52.228;21.026;2023-02-28T04:51:54;33.77;;;15.73;;
21392;SDS011;10857;52.228;21.026;2023-02-28T04:54:22;33.43;;;15.37;;
21392;SDS011;10857;52.228;21.026;2023-02-28T04:56:49;28.97;;;14.57;;
21392;SDS011;10857;52.228;21.026;2023-02-28T04:59:16;31.43;;;14.60;;
21392;SDS011;10857;52.228;21.026;2023-02-28T05:01:47;30.03;;;14.20;;
21392;SDS011;10857;52.228;21.026;2023-02-28T05:04:15;32.57;;;14.80;;
21392;SDS011;10857;52.228;21.026;2023-02-28T05:06:42;29.20;;;14.67;;
21392;SDS011;10857;52.228;21.026;2023-02-28T05:09:10;27.50;;;14.63;;
21392;SDS011;10857;52.228;21.026;2023-02-28T05:11:38;34.67;;;14.53;;
21392;SDS011;10857;52.228;21.026;2023-02-28T05:14:10;29.53;;;14.73;;
21392;SDS011;10857;52.228;21.026;2023-02-28T05:16:38;25.27;;;13.63;;
21392;SDS011;10857;52.228;21.026;2023-02-28T05:19:05;32.60;;;14.80;;
21392;SDS011;10857;52.228;21.026;2023-02-28T05:21:33;29.00;;;15.00;;
21392;SDS011;10857;52.228;21.026;2023-02-28T05:24:03;28.53;;;14.83;;
21392;SDS011;10857;52.228;21.026;2023-02-28T05:26:31;30.93;;;14.43;;
21392;SDS011;10857;52.228;21.026;2023-02-28T05:29:01;25.57;;;14.20;;
21392;SDS011;10857;52.228;21.026;2023-02-28T05:31:28;31.87;;;15.30;;
21392;SDS011;10857;52.228;21.026;2023-02-28T05:33:56;29.73;;;15.40;;
21392;SDS011;10857;52.228;21.026;2023-02-28T05:36:24;32.97;;;16.50;;
21392;SDS011;10857;52.228;21.026;2023-02-28T05:38:51;37.87;;;15.63;;
21392;SDS011;10857;52.228;21.026;2023-02-28T05:41:19;31.23;;;15.33;;
21392;SDS011;10857;52.228;21.026;2023-02-28T05:43:47;32.10;;;15.30;;
21392;SDS011;10857;52.228;21.026;2023-02-28T05:46:14;29.77;;;14.97;;
21392;SDS011;10857;52.228;21.026;2023-02-28T05:48:42;39.50;;;15.40;;
21392;SDS011;10857;52.228;21.026;2023-02-28T05:51:10;32.37;;;15.27;;
21392;SDS011;10857;52.228;21.026;2023-02-28T05:53:37;33.10;;;16.10;;
21392;SDS011;10857;52.228;21.026;2023-02-28T05:56:05;33.60;;;16.03;;
21392;SDS011;10857;52.228;21.026;2023-02-28T05:58:32;31.07;;;15.80;;
21392;SDS011;10857;52.228;21.026;2023-02-28T06:01:11;30.07;;;16.67;;
21392;SDS011;10857;52.228;21.026;2023-02-28T06:03:46;30.80;;;15.27;;
21392;SDS011;10857;52.228;21.026;2023-02-28T06:06:13;31.43;;;15.03;;
21392;SDS011;10857;52.228;21.026;2023-02-28T06:08:41;31.10;;;15.47;;
21392;SDS011;10857;52.228;21.026;2023-02-28T06:11:09;34.20;;;16.07;;
21392;SDS011;10857;52.228;21.026;2023-02-28T06:13:37;31.43;;;16.20;;
21392;SDS011;10857;52.228;21.026;2023-02-28T06:16:04;34.87;;;16.03;;
21392;SDS011;10857;52.228;21.026;2023-02-28T06:18:32;40.50;;;17.00;;
21392;SDS011;10857;52.228;21.026;2023-02-28T06:20:59;33.80;;;16.50;;
21392;SDS011;10857;52.228;21.026;2023-02-28T06:23:27;36.37;;;16.43;;
21392;SDS011;10857;52.228;21.026;2023-02-28T06:25:54;38.30;;;16.73;;
21392;SDS011;10857;52.228;21.026;2023-02-28T06:28:24;39.80;;;17.47;;
21392;SDS011;10857;52.228;21.026;2023-02-28T06:30:52;36.80;;;16.73;;
21392;SDS011;10857;52.228;21.026;2023-02-28T06:33:19;32.70;;;15.10;;
21392;SDS011;10857;52.228;21.026;2023-02-28T06:35:47;29.90;;;14.53;;
21392;SDS011;10857;52.228;21.026;2023-02-28T06:38:17;31.97;;;14.73;;
21392;SDS011;10857;52.228;21.026;2023-02-28T06:40:44;30.53;;;14.87;;
21392;SDS011;10857;52.228;21.026;2023-02-28T06:43:11;28.63;;;13.83;;
21392;SDS011;10857;52.228;21.026;2023-02-28T06:45:43;36.00;;;14.83;;
21392;SDS011;10857;52.228;21.026;2023-02-28T06:48:10;24.00;;;12.23;;
21392;SDS011;10857;52.228;21.026;2023-02-28T06:50:38;26.80;;;13.63;;
21392;SDS011;10857;52.228;21.026;2023-02-28T06:53:05;27.40;;;12.73;;
21392;SDS011;10857;52.228;21.026;2023-02-28T06:55:32;26.07;;;12.17;;
21392;SDS011;10857;52.228;21.026;2023-02-28T06:58:00;21.33;;;11.70;;
21392;SDS011;10857;52.228;21.026;2023-02-28T07:00:27;20.90;;;11.20;;
21392;SDS011;10857;52.228;21.026;2023-02-28T07:02:55;22.33;;;10.93;;
21392;SDS011;10857;52.228;21.026;2023-02-28T07:05:22;20.43;;;11.00;;
21392;SDS011;10857;52.228;21.026;2023-02-28T07:07:50;27.00;;;10.93;;
21392;SDS011;10857;52.228;21.026;2023-02-28T07:10:20;25.30;;;13.60;;
21392;SDS011;10857;52.228;21.026;2023-02-28T07:12:48;27.33;;;12.00;;
21392;SDS011;10857;52.228;21.026;2023-02-28T07:15:15;24.10;;;11.90;;
21392;SDS011;10857;52.228;21.026;2023-02-28T07:17:42;22.60;;;11.97;;
21392;SDS011;10857;52.228;21.026;2023-02-28T07:20:10;23.33;;;11.17;;
21392;SDS011;10857;52.228;21.026;2023-02-28T07:22:37;24.07;;;12.23;;
21392;SDS011;10857;52.228;21.026;2023-02-28T07:25:05;23.83;;;11.90;;
21392;SDS011;10857;52.228;21.026;2023-02-28T07:27:32;33.10;;;13.27;;
21392;SDS011;10857;52.228;21.026;2023-02-28T07:30:00;25.30;;;13.95;;
21392;SDS011;10857;52.228;21.026;2023-02-28T07:32:29;26.27;;;11.93;;
21392;SDS011;10857;52.228;21.026;2023-02-28T07:34:57;21.63;;;10.83;;
21392;SDS011;10857;52.228;21.026;2023-02-28T07:37:24;17.77;;;9.20;;
21392;SDS011;10857;52.228;21.026;2023-02-28T07:39:52;16.33;;;10.10;;
21392;SDS011;10857;52.228;21.026;2023-02-28T07:42:19;14.07;;;8.73;;
21392;SDS011;10857;52.228;21.026;2023-02-28T07:44:48;16.13;;;8.57;;
21392;SDS011;10857;52.228;21.026;2023-02-28T07:47:17;17.77;;;8.40;;
21392;SDS011;10857;52.228;21.026;2023-02-28T07:49:45;18.80;;;9.43;;
21392;SDS011;10857;52.228;21.026;2023-02-28T07:52:12;21.80;;;10.73;;
21392;SDS011;10857;52.228;21.026;2023-02-28T07:54:40;21.43;;;10.50;;
21392;SDS011;10857;52.228;21.026;2023-02-28T07:57:07;21.33;;;9.37;;
21392;SDS011;10857;52.228;21.026;2023-02-28T07:59:34;20.20;;;8.90;;
21392;SDS011;10857;52.228;21.026;2023-02-28T08:02:02;15.43;;;8.13;;
21392;SDS011;10857;52.228;21.026;2023-02-28T08:04:31;13.90;;;8.63;;
21392;SDS011;10857;52.228;21.026;2023-02-28T08:06:58;15.27;;;7.90;;
21392;SDS011;10857;52.228;21.026;2023-02-28T08:09:26;18.67;;;8.33;;
21392;SDS011;10857;52.228;21.026;2023-02-28T08:11:53;14.93;;;8.63;;
21392;SDS011;10857;52.228;21.026;2023-02-28T08:14:20;14.37;;;8.90;;
21392;SDS011;10857;52.228;21.026;2023-02-28T08:16:48;13.03;;;8.67;;
21392;SDS011;10857;52.228;21.026;2023-02-28T08:19:15;18.63;;;9.90;;
21392;SDS011;10857;52.228;21.026;2023-02-28T08:21:43;16.83;;;9.67;;
21392;SDS011;10857;52.228;21.026;2023-02-28T08:24:10;21.30;;;11.87;;
21392;SDS011;10857;52.228;21.026;2023-02-28T08:26:37;24.07;;;11.40;;
21392;SDS011;10857;52.228;21.026;2023-02-28T08:29:05;17.63;;;10.20;;
21392;SDS011;10857;52.228;21.026;2023-02-28T08:31:32;20.90;;;10.90;;
21392;SDS011;10857;52.228;21.026;2023-02-28T08:34:12;22.00;;;10.77;;
21392;SDS011;10857;52.228;21.026;2023-02-28T08:36:40;19.43;;;10.73;;
21392;SDS011;10857;52.228;21.026;2023-02-28T08:39:10;19.20;;;10.13;;
21392;SDS011;10857;52.228;21.026;2023-02-28T08:41:38;20.27;;;11.00;;
21392;SDS011;10857;52.228;21.026;2023-02-28T08:44:05;19.93;;;10.27;;
21392;SDS011;10857;52.228;21.026;2023-02-28T08:46:33;19.70;;;10.53;;
21392;SDS011;10857;52.228;21.026;2023-02-28T08:49:00;16.50;;;9.23;;
21392;SDS011;10857;52.228;21.026;2023-02-28T08:51:28;16.40;;;10.20;;
21392;SDS011;10857;52.228;21.026;2023-02-28T08:53:58;21.67;;;11.50;;
21392;SDS011;10857;52.228;21.026;2023-02-28T08:56:27;27.37;;;11.40;;
21392;SDS011;10857;52.228;21.026;2023-02-28T08:58:55;20.03;;;11.20;;
21392;SDS011;10857;52.228;21.026;2023-02-28T09:01:23;20.57;;;11.37;;
21392;SDS011;10857;52.228;21.026;2023-02-28T09:03:53;21.97;;;10.77;;
21392;SDS011;10857;52.228;21.026;2023-02-28T09:06:26;18.03;;;10.83;;
21392;SDS011;10857;52.228;21.026;2023-02-28T09:08:57;22.13;;;11.20;;
21392;SDS011;10857;52.228;21.026;2023-02-28T09:11:25;20.33;;;11.47;;
21392;SDS011;10857;52.228;21.026;2023-02-28T09:13:53;21.20;;;11.30;;
21392;SDS011;10857;52.228;21.026;2023-02-28T09:16:21;20.20;;;11.23;;
21392;SDS011;10857;52.228;21.026;2023-02-28T09:18:49;20.97;;;11.40;;
21392;SDS011;10857;52.228;21.026;2023-02-28T09:21:17;19.27;;;10.73;;
21392;SDS011;10857;52.228;21.026;2023-02-28T09:23:45;22.40;;;11.90;;
21392;SDS011;10857;52.228;21.026;2023-02-28T09:26:14;21.73;;;11.47;;
21392;SDS011;10857;52.228;21.026;2023-02-28T09:28:42;22.00;;;11.40;;
21392;SDS011;10857;52.228;21.026;2023-02-28T09:31:16;21.33;;;11.67;;
21392;SDS011;10857;52.228;21.026;2023-02-28T09:33:48;19.97;;;11.13;;
21392;SDS011;10857;52.228;21.026;2023-02-28T09:36:15;18.03;;;11.80;;
21392;SDS011;10857;52.228;21.026;2023-02-28T09:38:43;19.23;;;11.40;;
21392;SDS011;10857;52.228;21.026;2023-02-28T09:41:17;20.00;;;11.53;;
21392;SDS011;10857;52.228;21.026;2023-02-28T09:43:47;20.60;;;11.07;;
21392;SDS011;10857;52.228;21.026;2023-02-28T09:49:10;21.27;;;11.87;;
21392;SDS011;10857;52.228;21.026;2023-02-28T09:54:13;20.00;;;11.73;;
21392;SDS011;10857;52.228;21.026;2023-02-28T10:02:21;19.83;;;12.23;;
21392;SDS011;10857;52.228;21.026;2023-02-28T10:04:54;21.37;;;12.17;;
21392;SDS011;10857;52.228;21.026;2023-02-28T10:10:23;21.13;;;12.30;;
21392;SDS011;10857;52.228;21.026;2023-02-28T10:12:52;26.07;;;12.23;;
21392;SDS011;10857;52.228;21.026;2023-02-28T10:15:21;23.37;;;12.33;;
21392;SDS011;10857;52.228;21.026;2023-02-28T10:17:51;21.17;;;12.50;;
21392;SDS011;10857;52.228;21.026;2023-02-28T10:20:34;19.27;;;12.10;;
21392;SDS011;10857;52.228;21.026;2023-02-28T10:25:50;20.07;;;12.80;;
21392;SDS011;10857;52.228;21.026;2023-02-28T10:28:20;27.53;;;12.47;;
21392;SDS011;10857;52.228;21.026;2023-02-28T10:30:51;21.73;;;12.30;;
21392;SDS011;10857;52.228;21.026;2023-02-28T10:33:23;22.57;;;14.07;;
21392;SDS011;10857;52.228;21.026;2023-02-28T10:35:52;22.43;;;12.70;;
21392;SDS011;10857;52.228;21.026;2023-02-28T10:38:26;21.60;;;12.53;;
21392;SDS011;10857;52.228;21.026;2023-02-28T10:41:10;20.63;;;13.23;;
21392;SDS011;10857;52.228;21.026;2023-02-28T10:43:38;22.87;;;13.20;;
21392;SDS011;10857;52.228;21.026;2023-02-28T10:48:40;21.97;;;12.83;;
21392;SDS011;10857;52.228;21.026;2023-02-28T10:51:12;27.03;;;13.40;;
21392;SDS011;10857;52.228;21.026;2023-02-28T10:56:26;27.17;;;13.30;;
21392;SDS011;10857;52.228;21.026;2023-02-28T11:01:22;22.70;;;13.73;;
21392;SDS011;10857;52.228;21.026;2023-02-28T11:03:51;23.03;;;13.10;;
21392;SDS011;10857;52.228;21.026;2023-02-28T11:06:20;24.43;;;13.60;;
21392;SDS011;10857;52.228;21.026;2023-02-28T11:08:55;26.80;;;16.07;;
21392;SDS011;10857;52.228;21.026;2023-02-28T11:11:24;26.20;;;14.98;;
21392;SDS011;10857;52.228;21.026;2023-02-28T11:13:56;26.70;;;14.77;;
21392;SDS011;10857;52.228;21.026;2023-02-28T11:16:31;27.00;;;14.67;;
21392;SDS011;10857;52.228;21.026;2023-02-28T11:18:59;23.53;;;14.47;;
21392;SDS011;10857;52.228;21.026;2023-02-28T11:21:28;23.87;;;13.60;;
21392;SDS011;10857;52.228;21.026;2023-02-28T11:24:01;24.33;;;13.90;;
21392;SDS011;10857;52.228;21.026;2023-02-28T11:26:40;23.60;;;13.97;;
21392;SDS011;10857;52.228;21.026;2023-02-28T11:29:27;25.73;;;15.30;;
21392;SDS011;10857;52.228;21.026;2023-02-28T11:32:16;23.37;;;13.97;;
21392;SDS011;10857;52.228;21.026;2023-02-28T11:34:46;31.93;;;14.47;;
21392;SDS011;10857;52.228;21.026;2023-02-28T11:37:15;25.07;;;13.80;;
21392;SDS011;10857;52.228;21.026;2023-02-28T11:39:43;23.73;;;13.70;;
21392;SDS011;10857;52.228;21.026;2023-02-28T11:42:27;24.60;;;14.33;;
21392;SDS011;10857;52.228;21.026;2023-02-28T11:47:38;27.00;;;14.57;;
21392;SDS011;10857;52.228;21.026;2023-02-28T11:53:00;25.70;;;14.07;;
21392;SDS011;10857;52.228;21.026;2023-02-28T12:06:47;26.30;;;14.60;;
21392;SDS011;10857;52.228;21.026;2023-02-28T12:09:39;23.03;;;14.60;;
21392;SDS011;10857;52.228;21.026;2023-02-28T12:15:03;23.77;;;14.20;;
21392;SDS011;10857;52.228;21.026;2023-02-28T12:23:00;24.17;;;14.50;;
21392;SDS011;10857;52.228;21.026;2023-02-28T12:28:16;29.80;;;14.43;;
21392;SDS011;10857;52.228;21.026;2023-02-28T12:30:53;28.43;;;14.80;;
21392;SDS011;10857;52.228;21.026;2023-02-28T12:33:22;26.67;;;14.57;;
21392;SDS011;10857;52.228;21.026;2023-02-28T12:35:56;26.90;;;15.33;;
21392;SDS011;10857;52.228;21.026;2023-02-28T12:41:00;24.27;;;15.10;;
21392;SDS011;10857;52.228;21.026;2023-02-28T12:43:32;28.90;;;14.40;;
21392;SDS011;10857;52.228;21.026;2023-02-28T12:46:02;26.07;;;15.20;;
21392;SDS011;10857;52.228;21.026;2023-02-28T12:48:56;24.33;;;14.80;;
21392;SDS011;10857;52.228;21.026;2023-02-28T12:51:22;28.67;;;14.80;;
21392;SDS011;10857;52.228;21.026;2023-02-28T12:53:53;36.43;;;14.77;;
21392;SDS011;10857;52.228;21.026;2023-02-28T12:59:05;27.13;;;15.00;;
21392;SDS011;10857;52.228;21.026;2023-02-28T13:09:21;34.23;;;15.53;;
21392;SDS011;10857;52.228;21.026;2023-02-28T13:11:49;32.80;;;15.20;;
21392;SDS011;10857;52.228;21.026;2023-02-28T13:17:09;26.23;;;14.43;;
21392;SDS011;10857;52.228;21.026;2023-02-28T13:19:41;26.13;;;14.50;;
21392;SDS011;10857;52.228;21.026;2023-02-28T13:22:17;25.40;;;14.47;;
21392;SDS011;10857;52.228;21.026;2023-02-28T13:24:46;27.03;;;14.13;;
21392;SDS011;10857;52.228;21.026;2023-02-28T13:29:44;26.17;;;15.43;;
21392;SDS011;10857;52.228;21.026;2023-02-28T13:35:34;26.13;;;14.83;;
21392;SDS011;10857;52.228;21.026;2023-02-28T13:37:32;31.87;;;15.23;;
21392;SDS011;10857;52.228;21.026;2023-02-28T13:40:22;27.67;;;15.03;;
21392;SDS011;10857;52.228;21.026;2023-02-28T13:42:53;25.37;;;14.97;;
21392;SDS011;10857;52.228;21.026;2023-02-28T13:45:22;26.90;;;15.10;;
21392;SDS011;10857;52.228;21.026;2023-02-28T13:47:53;27.17;;;15.30;;
21392;SDS011;10857;52.228;21.026;2023-02-28T13:55:36;26.20;;;14.87;;
21392;SDS011;10857;52.228;21.026;2023-02-28T14:03:23;27.63;;;16.30;;
21392;SDS011;10857;52.228;21.026;2023-02-28T14:08:52;27.80;;;14.80;;
21392;SDS011;10857;52.228;21.026;2023-02-28T14:11:34;29.00;;;14.77;;
21392;SDS011;10857;52.228;21.026;2023-02-28T14:14:02;30.00;;;14.90;;
21392;SDS011;10857;52.228;21.026;2023-02-28T14:19:17;30.93;;;14.70;;
21392;SDS011;10857;52.228;21.026;2023-02-28T14:22:02;27.50;;;14.87;;
21392;SDS011;10857;52.228;21.026;2023-02-28T14:27:32;31.77;;;15.23;;
21392;SDS011;10857;52.228;21.026;2023-02-28T14:30:04;33.40;;;15.20;;
21392;SDS011;10857;52.228;21.026;2023-02-28T14:32:43;23.83;;;14.37;;
21392;SDS011;10857;52.228;21.026;2023-02-28T14:35:39;25.60;;;13.60;;
21392;SDS011;10857;52.228;21.026;2023-02-28T14:38:18;27.40;;;14.80;;
21392;SDS011;10857;52.228;21.026;2023-02-28T14:40:47;24.33;;;13.90;;
21392;SDS011;10857;52.228;21.026;2023-02-28T14:43:21;25.77;;;14.43;;
21392;SDS011;10857;52.228;21.026;2023-02-28T14:45:53;26.17;;;13.93;;
21392;SDS011;10857;52.228;21.026;2023-02-28T14:48:22;29.10;;;14.10;;
21392;SDS011;10857;52.228;21.026;2023-02-28T14:50:52;27.73;;;14.13;;
21392;SDS011;10857;52.228;21.026;2023-02-28T14:53:21;29.77;;;15.53;;
21392;SDS011;10857;52.228;21.026;2023-02-28T14:55:49;26.37;;;13.83;;
21392;SDS011;10857;52.228;21.026;2023-02-28T14:58:26;25.47;;;13.60;;
21392;SDS011;10857;52.228;21.026;2023-02-28T15:00:55;25.60;;;13.50;;
21392;SDS011;10857;52.228;21.026;2023-02-28T15:03:31;29.23;;;14.30;;
21392;SDS011;10857;52.228;21.026;2023-02-28T15:06:00;27.90;;;13.10;;
21392;SDS011;10857;52.228;21.026;2023-02-28T15:08:29;25.50;;;12.73;;
21392;SDS011;10857;52.228;21.026;2023-02-28T15:11:02;28.43;;;13.43;;
21392;SDS011;10857;52.228;21.026;2023-02-28T15:16:01;27.53;;;13.37;;
21392;SDS011;10857;52.228;21.026;2023-02-28T15:20:59;26.63;;;13.93;;
21392;SDS011;10857;52.228;21.026;2023-02-28T17:48:01;34.57;;;16.00;;
21392;SDS011;10857;52.228;21.026;2023-02-28T17:50:29;30.53;;;16.60;;
21392;SDS011;10857;52.228;21.026;2023-02-28T17:52:57;34.57;;;15.30;;
21392;SDS011;10857;52.228;21.026;2023-02-28T17:55:26;33.43;;;15.67;;
21392;SDS011;10857;52.228;21.026;2023-02-28T17:57:55;31.43;;;15.43;;
21392;SDS011;10857;52.228;21.026;2023-02-28T18:00:25;31.23;;;14.63;;
21392;SDS011;10857;52.228;21.026;2023-02-28T18:02:55;29.57;;;14.53;;
21392;SDS011;10857;52.228;21.026;2023-02-28T18:05:22;30.40;;;15.40;;
21392;SDS011;10857;52.228;21.026;2023-02-28T18:07:53;30.60;;;14.73;;
21392;SDS011;10857;52.228;21.026;2023-02-28T18:10:25;30.07;;;14.70;;
21392;SDS011;10857;52.228;21.026;2023-02-28T18:13:11;33.57;;;15.37;;
21392;SDS011;10857;52.228;21.026;2023-02-28T18:15:39;34.90;;;15.37;;
21392;SDS011;10857;52.228;21.026;2023-02-28T18:18:08;35.63;;;19.25;;
21392;SDS011;10857;52.228;21.026;2023-02-28T18:20:40;36.40;;;17.03;;
21392;SDS011;10857;52.228;21.026;2023-02-28T18:23:13;35.27;;;17.07;;
21392;SDS011;10857;52.228;21.026;2023-02-28T18:25:47;36.88;;;19.83;;
21392;SDS011;10857;52.228;21.026;2023-02-28T18:28:37;36.15;;;19.90;;
21392;SDS011;10857;52.228;21.026;2023-02-28T18:31:11;37.00;;;21.00;;
21392;SDS011;10857;52.228;21.026;2023-02-28T18:33:41;40.10;;;18.67;;
21392;SDS011;10857;52.228;21.026;2023-02-28T18:36:09;40.27;;;19.20;;
21392;SDS011;10857;52.228;21.026;2023-02-28T18:38:47;39.67;;;17.90;;
21392;SDS011;10857;52.228;21.026;2023-02-28T18:41:26;41.43;;;18.63;;
21392;SDS011;10857;52.228;21.026;2023-02-28T18:43:55;40.53;;;18.07;;
21392;SDS011;10857;52.228;21.026;2023-02-28T18:46:47;39.07;;;18.77;;
21392;SDS011;10857;52.228;21.026;2023-02-28T18:49:20;38.93;;;18.13;;
21392;SDS011;10857;52.228;21.026;2023-02-28T18:51:54;39.47;;;18.93;;
21392;SDS011;10857;52.228;21.026;2023-02-28T18:54:32;42.37;;;18.50;;